Time;durP1;ratioP1;P1;durP2;ratioP2;P2;SDS_P1;SDS_P2;PMS_P1;PMS_P2;Temp;Humidity;BMP_temperature;BMP_pressure;BME280_temperature;BME280_humidity;BME280_pressure;Samples;Min_cycle;Max_cycle;Signal;HPM_P1;HPM_P2
2021/11/19 00:00:30;;;;;;;23.45;20.30;;;;;;;7.27;100.00;99591.66;2080691;28;20258;-71
2021/11/19 00:01:35;;;;;;;22.63;20.23;;;;;;;7.28;100.00;99590.59;2088979;28;20238;-70
2021/11/19 00:02:37;;;;;;;25.35;20.77;;;;;;;7.29;100.00;99586.09;2088998;28;20237;-70
2021/11/19 00:03:38;;;;;;;26.80;20.60;;;;;;;7.27;100.00;99593.50;2088007;28;20297;-71
2021/11/19 00:04:40;;;;;;;21.70;19.67;;;;;;;7.26;100.00;99581.31;2097225;28;20268;-70
2021/11/19 00:05:42;;;;;;;25.48;20.83;;;;;;;7.26;100.00;99570.69;2097861;28;20226;-70
2021/11/19 00:06:47;;;;;;;25.05;21.13;;;;;;;7.26;100.00;99570.69;2097921;28;20225;-70
2021/11/19 00:07:50;;;;;;;22.83;20.40;;;;;;;7.24;100.00;99580.78;2097012;28;20218;-69
2021/11/19 00:08:52;;;;;;;24.33;20.35;;;;;;;7.28;100.00;99574.66;2080920;28;20219;-70
2021/11/19 00:09:53;;;;;;;26.70;20.48;;;;;;;7.25;100.00;99577.06;2082218;28;20666;-70
2021/11/19 00:10:55;;;;;;;23.57;20.30;;;;;;;7.26;100.00;99591.91;2080876;28;20662;-70
2021/11/19 00:11:56;;;;;;;22.02;19.88;;;;;;;7.25;100.00;99596.44;2088978;28;20234;-70
2021/11/19 00:12:58;;;;;;;26.30;20.43;;;;;;;7.23;100.00;99593.25;2089070;28;20231;-70
2021/11/19 00:14:00;;;;;;;23.92;21.30;;;;;;;7.26;100.00;99598.03;2088940;28;20241;-69
2021/11/19 00:15:04;;;;;;;23.35;20.73;;;;;;;7.23;100.00;99595.09;2089797;28;20284;-70
2021/11/19 00:16:05;;;;;;;29.70;21.13;;;;;;;7.23;100.00;99603.88;2088500;28;20219;-71
2021/11/19 00:17:08;;;;;;;26.13;21.35;;;;;;;7.25;100.00;99603.59;2080526;28;20223;-71
2021/11/19 00:18:09;;;;;;;31.70;21.85;;;;;;;7.22;100.00;99586.34;2084809;28;20284;-70
2021/11/19 00:19:12;;;;;;;22.87;20.47;;;;;;;7.23;100.00;99587.16;2097332;28;20284;-70
2021/11/19 00:20:16;;;;;;;24.85;21.40;;;;;;;7.22;100.00;99583.69;2089555;28;20250;-70
2021/11/19 00:21:19;;;;;;;25.45;20.52;;;;;;;7.26;100.00;99589.28;2088753;28;20222;-70
2021/11/19 00:22:21;;;;;;;26.67;20.88;;;;;;;7.25;100.00;99575.19;2088660;28;20653;-70
2021/11/19 00:23:22;;;;;;;22.88;20.17;;;;;;;7.27;100.00;99572.28;2082181;28;20226;-71
2021/11/19 00:24:24;;;;;;;22.33;20.13;;;;;;;7.24;100.00;99576.25;2080577;28;20305;-71
2021/11/19 00:25:25;;;;;;;22.90;20.63;;;;;;;7.21;100.00;99568.84;2088924;28;20228;-69
2021/11/19 00:26:28;;;;;;;25.42;20.70;;;;;;;7.26;100.00;99568.03;2088896;28;20232;-70
2021/11/19 00:27:29;;;;;;;23.92;20.70;;;;;;;7.20;100.00;99572.53;2088751;28;20271;-71
2021/11/19 00:28:35;;;;;;;23.17;20.70;;;;;;;7.22;100.00;99578.38;2088745;28;20589;-70
2021/11/19 00:29:37;;;;;;;23.05;20.38;;;;;;;7.17;100.00;99588.19;2082441;28;20576;-75
2021/11/19 00:30:41;;;;;;;26.02;20.77;;;;;;;7.20;100.00;99591.09;2088857;28;20249;-71
2021/11/19 00:31:43;;;;;;;29.20;20.88;;;;;;;7.20;100.00;99588.44;2088210;28;20235;-70
2021/11/19 00:32:47;;;;;;;23.70;20.20;;;;;;;7.18;100.00;99579.94;2088535;28;20688;-70
2021/11/19 00:33:47;;;;;;;25.77;21.17;;;;;;;7.23;100.00;99579.19;2087604;28;20222;-70
2021/11/19 00:34:51;;;;;;;23.38;21.10;;;;;;;7.19;100.00;99581.53;2088173;28;20222;-70
2021/11/19 00:35:54;;;;;;;25.25;21.35;;;;;;;7.15;100.00;99579.69;2088014;28;20306;-73
2021/11/19 00:36:58;;;;;;;24.65;22.05;;;;;;;7.18;100.00;99595.88;2100663;28;20247;-71
2021/11/19 00:38:00;;;;;;;24.05;21.33;;;;;;;7.17;100.00;99577.56;2095746;28;20240;-70
2021/11/19 00:39:05;;;;;;;24.55;21.17;;;;;;;7.13;100.00;99569.34;2088391;28;20214;-71
2021/11/19 00:40:10;;;;;;;25.45;22.42;;;;;;;7.13;100.00;99574.66;2088307;28;20219;-70
2021/11/19 00:41:18;;;;;;;24.85;20.75;;;;;;;7.17;100.00;99602.25;2087131;28;20724;-70
2021/11/19 00:42:19;;;;;;;22.85;20.50;;;;;;;7.22;100.00;99567.78;2087559;28;20627;-70
2021/11/19 00:43:22;;;;;;;24.35;21.00;;;;;;;7.23;100.00;99572.00;2088265;28;20242;-70
2021/11/19 00:44:23;;;;;;;25.40;21.90;;;;;;;7.19;100.00;99570.94;2086994;28;20226;-70
2021/11/19 00:45:25;;;;;;;22.90;20.70;;;;;;;7.17;100.00;99581.00;2087509;28;20313;-70
2021/11/19 00:46:26;;;;;;;23.67;21.40;;;;;;;7.17;100.00;99566.94;2088216;28;20231;-69
2021/11/19 00:47:28;;;;;;;25.63;20.80;;;;;;;7.15;100.00;99601.72;2087376;28;20223;-70
2021/11/19 00:48:32;;;;;;;24.77;21.83;;;;;;;7.15;100.00;99569.88;2079187;28;20580;-71
2021/11/19 00:49:37;;;;;;;23.83;21.33;;;;;;;7.14;100.00;99584.19;2081329;28;20231;-72
2021/11/19 00:50:40;;;;;;;27.65;21.85;;;;;;;7.12;100.00;99562.41;2089100;28;20297;-70
2021/11/19 00:51:46;;;;;;;23.45;20.88;;;;;;;7.15;100.00;99563.75;2089355;28;20221;-71
2021/11/19 00:52:47;;;;;;;24.20;21.50;;;;;;;7.15;100.00;99577.03;2079791;28;20227;-70
2021/11/19 00:53:51;;;;;;;28.17;21.73;;;;;;;7.15;100.00;99548.63;2079271;28;20302;-70
2021/11/19 00:54:56;;;;;;;24.80;21.65;;;;;;;7.13;100.00;99555.28;2079412;28;20228;-70
2021/11/19 00:55:58;;;;;;;25.10;21.60;;;;;;;7.09;100.00;99552.31;2089543;28;20226;-70
2021/11/19 00:57:04;;;;;;;29.10;22.00;;;;;;;7.18;100.00;99556.06;2087209;28;20219;-71
2021/11/19 00:58:07;;;;;;;23.13;20.63;;;;;;;7.21;100.00;99560.88;2082101;28;20223;-70
2021/11/19 00:59:12;;;;;;;26.77;21.90;;;;;;;7.13;100.00;99561.38;2084817;28;20234;-70
2021/11/19 01:00:16;;;;;;;23.58;21.20;;;;;;;7.09;100.00;99571.69;2079613;28;20298;-70
2021/11/19 01:01:28;;;;;;;23.80;21.30;;;;;;;7.08;100.00;99543.56;2087984;28;20229;-70
2021/11/19 01:02:31;;;;;;;27.50;21.50;;;;;;;7.05;100.00;99548.63;2094829;28;20249;-70
2021/11/19 01:03:38;;;;;;;25.17;21.10;;;;;;;7.05;100.00;99553.91;2087306;28;20295;-70
2021/11/19 01:04:41;;;;;;;24.77;20.92;;;;;;;7.12;100.00;99554.44;2080585;28;20278;-70
2021/11/19 01:05:44;;;;;;;22.52;20.13;;;;;;;7.08;100.00;99548.09;2079426;28;20216;-70
2021/11/19 01:06:46;;;;;;;23.40;20.73;;;;;;;7.07;100.00;99541.19;2080984;28;20298;-71
2021/11/19 01:07:48;;;;;;;23.33;20.90;;;;;;;7.05;100.00;99545.97;2087327;28;20223;-71
2021/11/19 01:08:49;;;;;;;29.20;21.23;;;;;;;7.02;100.00;99554.41;2087199;28;20294;-70
2021/11/19 01:09:58;;;;;;;22.73;20.52;;;;;;;7.05;100.00;99548.63;2082990;28;20229;-74
2021/11/19 01:11:02;;;;;;;24.48;21.48;;;;;;;7.02;100.00;99565.81;2081847;28;20222;-71
2021/11/19 01:12:06;;;;;;;23.48;21.08;;;;;;;6.97;100.00;99557.06;2087399;28;20226;-70
2021/11/19 01:13:09;;;;;;;25.33;21.17;;;;;;;6.97;100.00;99549.13;2086825;28;20246;-75
2021/11/19 01:14:17;;;;;;;27.30;20.92;;;;;;;6.94;100.00;99554.91;2079943;28;20247;-71
2021/11/19 01:15:22;;;;;;;26.70;21.75;;;;;;;6.95;100.00;99559.16;2079374;28;20669;-70
2021/11/19 01:16:27;;;;;;;24.00;21.50;;;;;;;6.91;100.00;99555.44;2086882;28;20233;-71
2021/11/19 01:17:33;;;;;;;23.27;21.08;;;;;;;6.89;100.00;99549.63;2087059;28;20641;-70
2021/11/19 01:18:39;;;;;;;22.95;20.65;;;;;;;6.89;100.00;99554.91;2087252;28;20219;-69
2021/11/19 01:19:45;;;;;;;25.42;21.38;;;;;;;6.86;100.00;99550.09;2088079;28;20258;-70
2021/11/19 01:20:49;;;;;;;26.83;20.98;;;;;;;6.85;100.00;99580.34;2079534;28;20223;-70
2021/11/19 01:21:55;;;;;;;24.52;21.88;;;;;;;6.81;100.00;99548.25;2079227;28;20773;-70
2021/11/19 01:22:59;;;;;;;23.85;20.65;;;;;;;6.77;100.00;99578.97;2079055;28;20606;-70
2021/11/19 01:24:04;;;;;;;26.13;21.50;;;;;;;6.82;100.00;99557.78;2079333;28;20258;-70
2021/11/19 01:25:09;;;;;;;23.95;20.67;;;;;;;6.76;100.00;99546.34;2079447;28;20223;-70
2021/11/19 01:26:14;;;;;;;25.33;21.23;;;;;;;6.75;100.00;99559.88;2078939;28;20277;-70
2021/11/19 01:27:16;;;;;;;23.90;21.08;;;;;;;6.73;100.00;99552.19;2081094;28;20223;-70
2021/11/19 01:28:18;;;;;;;28.92;21.50;;;;;;;6.72;100.00;99571.00;2087065;28;20211;-70
2021/11/19 01:29:19;;;;;;;22.40;20.10;;;;;;;6.74;100.00;99543.19;2087872;28;20229;-70
2021/11/19 01:30:23;;;;;;;23.23;21.00;;;;;;;6.70;100.00;99544.75;2087986;28;20221;-70
2021/11/19 01:31:28;;;;;;;22.92;20.42;;;;;;;6.75;100.00;99533.38;2086863;28;20273;-70
2021/11/19 01:32:36;;;;;;;24.45;21.35;;;;;;;6.74;100.00;99537.88;2080152;28;20592;-70
2021/11/19 01:33:44;;;;;;;23.20;20.67;;;;;;;6.68;100.00;99538.91;2088054;28;20226;-70
2021/11/19 01:35:15;;;;;;;26.08;21.67;;;;;;;6.74;100.00;99558.28;2088573;28;20222;-70
2021/11/19 01:36:29;;;;;;;23.15;20.95;;;;;;;6.74;100.00;99529.91;2087477;28;20656;-70
2021/11/19 01:37:43;;;;;;;26.48;20.75;;;;;;;6.70;100.00;99533.38;2086533;28;20233;-70
2021/11/19 01:39:12;;;;;;;23.30;20.90;;;;;;;6.66;100.00;99578.13;2080012;28;20233;-71
2021/11/19 01:40:46;;;;;;;24.85;20.75;;;;;;;6.65;100.00;99557.97;2086142;28;20226;-70
2021/11/19 01:42:04;;;;;;;23.55;20.90;;;;;;;6.69;100.00;99543.16;2086558;28;20222;-70
2021/11/19 01:43:09;;;;;;;23.65;21.08;;;;;;;6.65;100.00;99576.53;2079055;28;20615;-70
2021/11/19 01:44:12;;;;;;;25.70;20.35;;;;;;;6.65;100.00;99581.03;2085289;28;20226;-70
2021/11/19 01:45:16;;;;;;;23.98;21.38;;;;;;;6.64;100.00;99543.13;2086762;28;20229;-70
2021/11/19 01:46:20;;;;;;;24.33;21.83;;;;;;;6.66;100.00;99534.91;2086952;28;20724;-70
2021/11/19 01:47:22;;;;;;;24.25;21.63;;;;;;;6.64;100.00;99548.44;2078962;28;20227;-70
2021/11/19 01:48:28;;;;;;;23.33;20.85;;;;;;;6.64;100.00;99537.84;2078489;28;20261;-70
2021/11/19 01:49:33;;;;;;;23.10;20.52;;;;;;;6.65;100.00;99573.88;2084563;28;20225;-70
2021/11/19 01:50:37;;;;;;;25.90;21.48;;;;;;;6.69;100.00;99535.22;2095058;28;20263;-70
2021/11/19 01:51:49;;;;;;;23.77;21.27;;;;;;;6.66;100.00;99543.66;2094394;28;20316;-70
2021/11/19 01:53:00;;;;;;;26.33;21.50;;;;;;;6.64;100.00;99568.84;2079897;28;20226;-70
2021/11/19 01:54:06;;;;;;;25.25;21.13;;;;;;;6.69;100.00;99542.34;2087111;28;20224;-69
2021/11/19 01:55:15;;;;;;;23.27;20.85;;;;;;;6.66;100.00;99556.91;2086431;28;20227;-70
2021/11/19 01:56:24;;;;;;;23.73;20.98;;;;;;;6.62;100.00;99571.75;2079442;28;20273;-71
2021/11/19 01:57:29;;;;;;;22.77;20.45;;;;;;;6.60;100.00;99557.94;2079059;28;20693;-71
2021/11/19 01:58:37;;;;;;;23.83;20.92;;;;;;;6.64;100.00;99558.25;2078872;28;20230;-70
2021/11/19 01:59:44;;;;;;;24.98;21.48;;;;;;;6.58;100.00;99541.50;2079185;28;20254;-70
2021/11/19 02:00:51;;;;;;;29.05;21.27;;;;;;;6.57;100.00;99547.88;2087425;28;20222;-69
2021/11/19 02:01:54;;;;;;;27.20;21.33;;;;;;;6.58;100.00;99533.56;2086477;28;20635;-73
2021/11/19 02:02:59;;;;;;;23.48;21.05;;;;;;;6.54;100.00;99529.84;2079185;28;20262;-70
2021/11/19 02:04:10;;;;;;;24.00;21.45;;;;;;;6.57;100.00;99563.78;2079396;28;20236;-72
2021/11/19 02:05:16;;;;;;;23.92;21.60;;;;;;;6.58;100.00;99549.47;2086781;28;20285;-70
2021/11/19 02:06:19;;;;;;;23.95;21.48;;;;;;;6.56;100.00;99548.13;2086684;28;20227;-69
2021/11/19 02:07:28;;;;;;;25.02;21.90;;;;;;;6.57;100.00;99531.16;2088962;28;20227;-70
2021/11/19 02:08:42;;;;;;;26.35;21.50;;;;;;;6.54;100.00;99526.38;2086416;28;20234;-70
2021/11/19 02:09:55;;;;;;;23.08;20.70;;;;;;;6.56;100.00;99543.63;2079251;28;20231;-71
2021/11/19 02:11:11;;;;;;;25.52;21.58;;;;;;;6.55;100.00;99531.44;2087733;28;20285;-70
2021/11/19 02:12:21;;;;;;;23.95;21.45;;;;;;;6.61;100.00;99530.41;2081539;28;20286;-70
2021/11/19 02:13:30;;;;;;;29.38;22.23;;;;;;;6.57;100.00;99515.25;2089692;28;20218;-70
2021/11/19 02:14:44;;;;;;;24.92;21.63;;;;;;;6.56;100.00;99503.84;2086944;28;20227;-69
2021/11/19 02:15:50;;;;;;;25.80;22.10;;;;;;;6.57;100.00;99513.41;2079608;28;20315;-70
2021/11/19 02:16:55;;;;;;;27.38;21.58;;;;;;;6.53;100.00;99504.38;2086843;28;20252;-70
2021/11/19 02:18:07;;;;;;;25.52;22.58;;;;;;;6.50;100.00;99499.56;2086335;28;20222;-69
2021/11/19 02:19:11;;;;;;;23.73;21.25;;;;;;;6.47;100.00;99511.50;2086420;28;20226;-70
2021/11/19 02:20:16;;;;;;;24.05;21.60;;;;;;;6.47;100.00;99510.72;2086586;28;20234;-70
2021/11/19 02:21:22;;;;;;;24.45;21.90;;;;;;;6.50;100.00;99518.13;2078858;28;20284;-70
2021/11/19 02:22:27;;;;;;;24.02;21.23;;;;;;;6.47;100.00;99523.97;2086994;28;20229;-70
2021/11/19 02:23:34;;;;;;;24.45;21.75;;;;;;;6.43;100.00;99510.44;2094846;28;20218;-71
2021/11/19 02:24:38;;;;;;;25.90;22.48;;;;;;;6.44;100.00;99519.97;2087256;28;20219;-69
2021/11/19 02:25:44;;;;;;;29.60;22.88;;;;;;;6.42;100.00;99519.41;2087215;28;20250;-70
2021/11/19 02:26:50;;;;;;;23.95;21.40;;;;;;;6.41;100.00;99517.03;2086875;28;20269;-69
2021/11/19 02:27:56;;;;;;;25.55;21.48;;;;;;;6.46;100.00;99509.13;2087000;28;20626;-70
2021/11/19 02:29:02;;;;;;;25.02;22.05;;;;;;;6.44;100.00;99495.31;2087178;28;20310;-71
2021/11/19 02:30:10;;;;;;;24.85;22.27;;;;;;;6.40;100.00;99504.84;2087170;28;20223;-70
2021/11/19 02:33:08;;;;;;;25.45;22.50;;;;;;;6.39;100.00;99487.34;2086676;28;20227;-70
2021/11/19 02:34:12;;;;;;;24.63;22.13;;;;;;;6.38;100.00;99485.75;2086116;28;20298;-70
2021/11/19 02:35:25;;;;;;;23.98;21.35;;;;;;;6.40;100.00;99496.88;2079314;28;20223;-70
2021/11/19 02:36:32;;;;;;;26.02;22.10;;;;;;;6.37;100.00;99484.16;2078614;28;20250;-70
2021/11/19 02:37:39;;;;;;;23.58;21.17;;;;;;;6.32;100.00;99494.72;2079216;28;20227;-69
2021/11/19 02:38:45;;;;;;;23.98;21.50;;;;;;;6.33;100.00;99505.06;2078416;28;20750;-71
2021/11/19 02:39:49;;;;;;;27.10;22.63;;;;;;;6.35;100.00;99502.19;2087296;28;20246;-70
2021/11/19 02:40:51;;;;;;;25.05;22.38;;;;;;;6.38;100.00;99480.44;2086424;28;20221;-70
2021/11/19 02:41:57;;;;;;;26.63;21.80;;;;;;;6.41;100.00;99493.19;2086384;28;20222;-69
2021/11/19 02:43:02;;;;;;;25.35;22.73;;;;;;;6.38;100.00;99485.75;2087084;28;20629;-69
2021/11/19 02:44:09;;;;;;;25.27;22.52;;;;;;;6.38;100.00;99496.34;2094664;28;20226;-70
2021/11/19 02:45:13;;;;;;;27.45;21.35;;;;;;;6.38;100.00;99494.50;2086716;28;20233;-69
2021/11/19 02:46:17;;;;;;;35.83;22.50;;;;;;;6.37;100.00;99494.75;2086900;28;20265;-69
2021/11/19 02:47:20;;;;;;;27.30;22.13;;;;;;;6.33;100.00;99486.50;2086882;28;20249;-69
2021/11/19 02:48:28;;;;;;;27.48;22.27;;;;;;;6.35;100.00;99502.19;2086155;28;20227;-70
2021/11/19 02:49:29;;;;;;;27.42;22.08;;;;;;;6.35;100.00;99489.72;2087073;28;20230;-69
2021/11/19 02:50:34;;;;;;;25.08;22.38;;;;;;;6.33;100.00;99486.50;2094663;28;20665;-69
2021/11/19 02:51:36;;;;;;;24.42;21.85;;;;;;;6.35;100.00;99496.88;2086793;28;20227;-69
2021/11/19 02:52:43;;;;;;;24.23;21.38;;;;;;;6.37;100.00;99473.56;2094873;28;20234;-69
2021/11/19 02:53:46;;;;;;;24.63;22.02;;;;;;;6.35;100.00;99473.03;2094517;28;20226;-70
2021/11/19 02:54:51;;;;;;;25.00;22.35;;;;;;;6.38;100.00;99483.09;2086585;28;20226;-69
2021/11/19 02:55:55;;;;;;;28.42;22.40;;;;;;;6.38;100.00;99475.94;2085775;28;20239;-69
2021/11/19 02:56:59;;;;;;;25.05;22.40;;;;;;;6.36;100.00;99493.16;2086554;28;20274;-69
2021/11/19 02:58:00;;;;;;;26.15;22.65;;;;;;;6.36;100.00;99498.47;2086540;28;20593;-69
2021/11/19 02:59:03;;;;;;;27.88;23.77;;;;;;;6.34;100.00;99479.34;2086382;28;20229;-70
2021/11/19 03:00:08;;;;;;;25.30;22.33;;;;;;;6.33;100.00;99477.75;2086487;28;20218;-69
2021/11/19 03:01:14;;;;;;;25.20;22.45;;;;;;;6.34;100.00;99480.19;2078404;28;20219;-69
2021/11/19 03:02:28;;;;;;;24.65;22.05;;;;;;;6.33;100.00;99489.16;2078546;28;20220;-69
2021/11/19 03:03:35;;;;;;;26.95;23.00;;;;;;;6.29;100.00;99482.78;2080200;28;20716;-70
2021/11/19 03:04:43;;;;;;;24.70;21.83;;;;;;;6.28;100.00;99475.91;2078226;28;20281;-69
2021/11/19 03:05:46;;;;;;;26.38;23.13;;;;;;;6.31;100.00;99474.56;2083712;28;20297;-70
2021/11/19 03:06:48;;;;;;;24.55;22.00;;;;;;;6.31;100.00;99490.47;2086436;28;20223;-70
2021/11/19 03:07:51;;;;;;;26.00;22.42;;;;;;;6.27;100.00;99473.50;2077958;28;20638;-70
2021/11/19 03:08:55;;;;;;;25.40;22.83;;;;;;;6.28;100.00;99475.91;2079857;28;20635;-70
2021/11/19 03:10:03;;;;;;;24.70;22.27;;;;;;;6.22;100.00;99496.25;2078274;28;20223;-69
2021/11/19 03:11:06;;;;;;;25.70;23.05;;;;;;;6.23;100.00;99473.22;2086269;28;20233;-72
2021/11/19 03:12:10;;;;;;;26.42;23.33;;;;;;;6.21;100.00;99476.13;2093811;28;20248;-75
2021/11/19 03:13:14;;;;;;;24.58;22.08;;;;;;;6.18;100.00;99476.66;2092226;28;20705;-70
2021/11/19 03:14:19;;;;;;;27.38;22.15;;;;;;;6.17;100.00;99461.00;2083747;28;20276;-71
2021/11/19 03:15:23;;;;;;;24.83;22.05;;;;;;;6.21;100.00;99462.88;2085417;28;20230;-71
2021/11/19 03:16:27;;;;;;;25.58;22.77;;;;;;;6.21;100.00;99502.63;2085642;28;20235;-70
2021/11/19 03:17:28;;;;;;;26.42;23.55;;;;;;;6.18;100.00;99478.50;2078357;28;20705;-71
2021/11/19 03:18:31;;;;;;;27.00;23.35;;;;;;;6.18;100.00;99465.25;2078314;28;20609;-70
2021/11/19 03:19:32;;;;;;;26.05;23.42;;;;;;;6.23;100.00;99479.31;2078195;28;20227;-70
2021/11/19 03:20:34;;;;;;;29.93;23.70;;;;;;;6.18;100.00;99466.03;2086349;28;20233;-71
2021/11/19 03:21:37;;;;;;;26.38;23.60;;;;;;;6.17;100.00;99471.59;2086297;28;20225;-71
2021/11/19 03:22:39;;;;;;;27.35;23.05;;;;;;;6.16;100.00;99462.03;2086213;28;20276;-71
2021/11/19 03:23:40;;;;;;;25.88;22.55;;;;;;;6.13;100.00;99447.47;2085992;28;20235;-71
2021/11/19 03:24:44;;;;;;;24.83;22.48;;;;;;;6.11;100.00;99459.38;2086564;28;20226;-71
2021/11/19 03:25:46;;;;;;;26.20;23.20;;;;;;;6.15;100.00;99455.94;2086447;28;20645;-71
2021/11/19 03:26:49;;;;;;;25.25;22.40;;;;;;;6.14;100.00;99450.91;2094703;28;20306;-71
2021/11/19 03:27:52;;;;;;;25.30;22.60;;;;;;;6.09;100.00;99446.41;2085955;28;20218;-72
2021/11/19 03:29:03;;;;;;;27.40;22.90;;;;;;;6.16;100.00;99440.84;2079082;28;20690;-71
2021/11/19 03:30:12;;;;;;;27.08;22.73;;;;;;;6.09;100.00;99454.34;2078116;28;20281;-71
2021/11/19 03:31:16;;;;;;;30.77;24.70;;;;;;;6.08;100.00;99450.09;2086977;28;20226;-71
2021/11/19 03:32:24;;;;;;;28.20;22.65;;;;;;;6.09;100.00;99450.91;2086320;28;20253;-71
2021/11/19 03:33:30;;;;;;;25.42;22.60;;;;;;;6.12;100.00;99443.22;2078676;28;20570;-71
2021/11/19 03:34:31;;;;;;;27.40;22.35;;;;;;;6.09;100.00;99440.31;2086878;28;20276;-70
2021/11/19 03:35:33;;;;;;;25.27;22.20;;;;;;;6.11;100.00;99456.72;2086207;28;20703;-71
2021/11/19 03:36:35;;;;;;;26.60;22.98;;;;;;;6.05;100.00;99445.31;2078021;28;20235;-71
2021/11/19 03:37:39;;;;;;;26.55;22.85;;;;;;;6.15;100.00;99450.66;2078071;28;20235;-71
2021/11/19 03:38:44;;;;;;;25.17;22.55;;;;;;;6.11;100.00;99449.56;2094527;28;20307;-71
2021/11/19 03:39:47;;;;;;;28.83;22.77;;;;;;;6.12;100.00;99447.72;2102409;28;20225;-71
2021/11/19 03:40:50;;;;;;;25.77;23.08;;;;;;;6.10;100.00;99440.03;2093606;28;20222;-71
2021/11/19 03:42:37;;;;;;;25.85;23.23;;;;;;;6.12;100.00;99467.06;2085919;28;20242;-74
2021/11/19 03:43:40;;;;;;;24.52;22.05;;;;;;;6.16;100.00;99456.75;2074636;28;20721;-72
2021/11/19 03:44:46;;;;;;;25.02;22.40;;;;;;;6.15;100.00;99455.16;2069774;28;20593;-71
2021/11/19 03:45:51;;;;;;;26.70;22.77;;;;;;;6.12;100.00;99450.38;2062008;28;20839;-71
2021/11/19 03:46:59;;;;;;;27.27;23.45;;;;;;;6.09;100.00;99457.00;2067702;28;20243;-73
2021/11/19 03:48:00;;;;;;;24.88;21.83;;;;;;;6.14;100.00;99451.69;2070402;28;20230;-71
2021/11/19 03:49:02;;;;;;;25.65;22.00;;;;;;;6.12;100.00;99469.72;2069399;28;20228;-71
2021/11/19 03:50:06;;;;;;;25.33;22.30;;;;;;;6.15;100.00;99450.66;2069745;28;20239;-71
2021/11/19 03:51:11;;;;;;;24.88;22.13;;;;;;;6.15;100.00;99441.91;2077714;28;20252;-69
2021/11/19 03:52:17;;;;;;;25.35;22.50;;;;;;;6.16;100.00;99484.03;2077716;28;20578;-71
2021/11/19 03:53:22;;;;;;;30.13;22.60;;;;;;;6.15;100.00;99450.66;2077557;28;20219;-71
2021/11/19 03:54:25;;;;;;;24.38;21.92;;;;;;;6.21;100.00;99444.31;2069511;28;20343;-71
2021/11/19 03:55:34;;;;;;;25.42;22.65;;;;;;;6.17;100.00;99443.25;2069801;28;20224;-71
2021/11/19 03:56:36;;;;;;;24.70;22.38;;;;;;;6.13;100.00;99458.06;2070125;28;20236;-71
2021/11/19 03:57:37;;;;;;;24.35;21.88;;;;;;;6.13;100.00;99442.16;2069151;28;20695;-73
2021/11/19 03:58:40;;;;;;;24.55;21.98;;;;;;;6.11;100.00;99456.72;2077613;28;20334;-72
2021/11/19 03:59:44;;;;;;;24.02;21.45;;;;;;;6.09;100.00;99449.03;2077585;28;20318;-71
2021/11/19 04:00:51;;;;;;;26.08;23.38;;;;;;;6.08;100.00;99460.69;2077983;28;20726;-71
2021/11/19 04:01:56;;;;;;;24.67;21.85;;;;;;;6.06;100.00;99456.69;2081057;28;20223;-71
2021/11/19 04:02:58;;;;;;;25.50;21.83;;;;;;;6.05;100.00;99461.19;2077999;28;20562;-71
2021/11/19 04:04:00;;;;;;;25.13;22.42;;;;;;;6.05;100.00;99442.66;2077981;28;20223;-71
2021/11/19 04:05:04;;;;;;;25.95;22.80;;;;;;;6.09;100.00;99448.25;2078046;28;20302;-71
2021/11/19 04:06:06;;;;;;;24.83;22.10;;;;;;;6.08;100.00;99459.88;2078266;28;20265;-70
2021/11/19 04:07:09;;;;;;;28.40;22.27;;;;;;;6.04;100.00;99441.06;2077592;28;20223;-72
2021/11/19 04:08:13;;;;;;;25.33;22.50;;;;;;;6.04;100.00;99435.75;2078224;28;21280;-71
2021/11/19 04:09:26;;;;;;;27.08;22.45;;;;;;;6.04;100.00;99442.91;2080512;28;20686;-71
2021/11/19 04:10:27;;;;;;;24.35;21.75;;;;;;;6.08;100.00;99438.69;2079621;28;20238;-71
2021/11/19 04:11:29;;;;;;;24.83;22.23;;;;;;;6.06;100.00;99438.16;2079438;28;20229;-71
2021/11/19 04:12:33;;;;;;;26.02;22.90;;;;;;;6.05;100.00;99439.22;2079506;28;20562;-71
2021/11/19 04:13:36;;;;;;;25.00;22.30;;;;;;;6.04;100.00;99448.22;2080061;28;20705;-72
2021/11/19 04:14:37;;;;;;;25.88;23.20;;;;;;;6.04;100.00;99446.34;2087398;28;20226;-72
2021/11/19 04:15:42;;;;;;;24.40;22.03;;;;;;;6.04;100.00;99434.97;2081014;28;20319;-72
2021/11/19 04:16:47;;;;;;;26.13;23.40;;;;;;;6.02;100.00;99455.63;2079802;28;20223;-69
2021/11/19 04:17:48;;;;;;;24.85;22.25;;;;;;;5.99;100.00;99461.41;2079905;28;20345;-71
2021/11/19 04:18:50;;;;;;;26.05;22.45;;;;;;;5.99;100.00;99462.22;2079349;28;20237;-71
2021/11/19 04:19:53;;;;;;;27.58;23.70;;;;;;;5.99;100.00;99440.22;2079459;28;20231;-71
2021/11/19 04:20:58;;;;;;;25.23;22.20;;;;;;;5.98;100.00;99451.88;2087809;28;20226;-71
2021/11/19 04:22:02;;;;;;;27.08;22.70;;;;;;;6.00;100.00;99457.72;2087567;28;20226;-71
2021/11/19 04:23:04;;;;;;;25.85;23.17;;;;;;;6.00;100.00;99450.59;2079622;28;20223;-69
2021/11/19 04:24:08;;;;;;;25.58;22.98;;;;;;;5.99;100.00;99456.91;2079573;28;20219;-69
2021/11/19 04:25:13;;;;;;;26.35;22.85;;;;;;;5.95;100.00;99456.63;2087201;28;20226;-71
2021/11/19 04:26:14;;;;;;;25.13;22.52;;;;;;;5.96;100.00;99462.72;2087530;28;20223;-71
2021/11/19 04:27:17;;;;;;;25.08;22.65;;;;;;;5.95;100.00;99446.03;2079469;28;20273;-71
2021/11/19 04:28:36;;;;;;;26.00;22.48;;;;;;;5.93;100.00;99442.06;2081464;28;20223;-71
2021/11/19 04:29:44;;;;;;;25.20;22.60;;;;;;;5.99;100.00;99451.59;2079612;28;20243;-71
2021/11/19 04:30:59;;;;;;;27.48;23.00;;;;;;;5.95;100.00;99466.44;2080560;28;20729;-69
2021/11/19 04:32:04;;;;;;;31.40;23.63;;;;;;;6.00;100.00;99440.00;2079536;28;20739;-70
2021/11/19 04:33:04;;;;;;;25.40;22.73;;;;;;;5.97;100.00;99453.72;2079517;28;20249;-71
2021/11/19 04:34:10;;;;;;;26.13;23.38;;;;;;;5.94;100.00;99443.66;2079119;28;20306;-69
2021/11/19 04:35:11;;;;;;;28.58;23.10;;;;;;;5.91;100.00;99438.88;2079373;28;20247;-69
2021/11/19 04:36:13;;;;;;;31.20;23.67;;;;;;;5.95;100.00;99439.94;2079253;28;20247;-69
2021/11/19 04:37:16;;;;;;;27.38;23.10;;;;;;;5.94;100.00;99439.16;2079484;28;20745;-69
2021/11/19 04:38:17;;;;;;;25.30;22.67;;;;;;;5.90;100.00;99434.56;2079353;28;20624;-70
2021/11/19 04:39:18;;;;;;;26.17;23.10;;;;;;;5.91;100.00;99438.88;2079348;28;20720;-70
2021/11/19 04:40:26;;;;;;;30.08;23.55;;;;;;;5.87;100.00;99437.75;2079194;28;20223;-70
2021/11/19 04:41:27;;;;;;;26.23;23.30;;;;;;;5.92;100.00;99435.97;2079630;28;24511;-69
2021/11/19 04:42:29;;;;;;;25.38;22.67;;;;;;;5.94;100.00;99438.34;2078943;28;20768;-70
2021/11/19 04:43:31;;;;;;;25.63;22.83;;;;;;;5.90;100.00;99432.75;2079233;28;20567;-70
2021/11/19 04:44:32;;;;;;;26.05;23.33;;;;;;;5.87;100.00;99453.63;2079249;28;20231;-70
2021/11/19 04:45:35;;;;;;;26.63;23.77;;;;;;;5.82;100.00;99443.00;2079225;28;20216;-70
2021/11/19 04:46:36;;;;;;;28.83;23.65;;;;;;;5.78;100.00;99444.56;2079392;28;20223;-69
2021/11/19 04:47:39;;;;;;;26.88;24.08;;;;;;;5.72;100.00;99438.44;2078847;28;20698;-69
2021/11/19 04:48:45;;;;;;;28.80;24.20;;;;;;;5.69;100.00;99441.59;2085898;28;20231;-70
2021/11/19 04:49:46;;;;;;;29.95;23.20;;;;;;;5.69;100.00;99449.53;2080614;28;20249;-69
2021/11/19 04:50:50;;;;;;;25.77;23.17;;;;;;;5.66;100.00;99448.22;2079219;28;20238;-69
2021/11/19 04:51:52;;;;;;;26.77;23.70;;;;;;;5.66;100.00;99452.72;2079521;28;20230;-70
2021/11/19 04:52:54;;;;;;;26.08;23.27;;;;;;;5.67;100.00;99438.41;2091279;28;20224;-70
2021/11/19 04:53:56;;;;;;;28.10;24.25;;;;;;;5.65;100.00;99449.28;2089749;28;20556;-69
2021/11/19 04:54:59;;;;;;;27.83;24.25;;;;;;;5.66;100.00;99445.56;2087166;28;20230;-69
2021/11/19 04:56:02;;;;;;;26.38;23.48;;;;;;;5.68;100.00;99440.00;2079164;28;20271;-69
2021/11/19 04:57:06;;;;;;;27.40;24.02;;;;;;;5.68;100.00;99429.44;2079503;28;20732;-70
2021/11/19 04:58:07;;;;;;;25.52;22.80;;;;;;;5.65;100.00;99435.22;2087098;28;20669;-71
2021/11/19 04:59:10;;;;;;;27.65;23.60;;;;;;;5.68;100.00;99443.44;2087481;28;20226;-70
2021/11/19 05:00:23;;;;;;;32.53;24.98;;;;;;;5.66;100.00;99448.22;2095658;28;20294;-69